Decoded Metar for KSDY (SIDNEY RICHLAND in MT, USA) (IATA:SDY) | Meteo·Mobile Aviation Weather
aviador You're here:

KSDY Decoded Metar

SIDNEY RICHLAND in MT, USA
Report Time2018-11-16 02:56:00
UTC Time2018-11-16 03:29:10
Flight Rules vfr VFR
WindCalm
Visibility9999 m
Phenomena:N/A
Clouds:Scattered 034 Hf
CeilingNone
Temp-1°C (ISA -12)
Dew Point-1°C (100% RH)
AAT-3.1°C
QNH1017 hPa
Density Alt466 ft
Elevation1,985 ft
Report Wrong Elevation
Raw Report
KSDY 160256Z AUTO 00000KT 10SM SCT034 M01/M01 A3002 RMK AO2 SLP190
T10061011 58012 FZRANO=

Extra information for KSDY:More info

Metar Taf Metar & Taf Last 4 Metars F.Rules Stats Wind Profile Meteogram Temp Stats Airport Information Weather charts Add Link Nearby VenuesMetar ALERT Operation Metar Decoded Social comments

AIRNAV info for KSDY